createdAt,value
2022-08-23T00:00:19.472Z,99808.75
2022-08-23T00:00:51.379Z,99804.91
2022-08-23T00:01:23.879Z,99806.59
2022-08-23T00:01:56.432Z,99809.59
2022-08-23T00:02:29.059Z,99811.75
2022-08-23T00:03:00.688Z,99810.91
2022-08-23T00:03:34.930Z,99810.75
2022-08-23T00:04:08.059Z,99807.91
2022-08-23T00:04:40.665Z,99813.94
2022-08-23T00:05:32.172Z,99806.91
2022-08-23T00:06:03.792Z,99806.75
2022-08-23T00:06:35.357Z,99811.59
2022-08-23T00:07:08.278Z,99800.69
2022-08-23T00:07:41.979Z,99810.91
2022-08-23T00:08:13.545Z,99810.25
2022-08-23T00:08:48.445Z,99809.25
2022-08-23T00:09:20.742Z,99809.94
2022-08-23T00:09:52.364Z,99810.25
2022-08-23T00:10:23.875Z,99811.94
2022-08-23T00:10:55.656Z,99804.22
2022-08-23T00:11:35.000Z,99812.28
2022-08-23T00:12:14.137Z,99806.91
2022-08-23T00:12:45.920Z,99809.19
2022-08-23T00:13:17.380Z,99803.00
2022-08-23T00:13:48.806Z,99805.53
2022-08-23T00:14:21.829Z,99806.50
2022-08-23T00:14:54.420Z,99807.53
2022-08-23T00:15:25.984Z,99809.88
2022-08-23T00:15:57.855Z,99810.06
2022-08-23T00:16:29.540Z,99801.34
2022-08-23T00:17:00.973Z,99810.38
2022-08-23T00:17:34.289Z,99804.19
2022-08-23T00:18:06.282Z,99810.03
2022-08-23T00:18:37.695Z,99810.22
2022-08-23T00:19:09.763Z,99815.22
2022-08-23T00:19:41.255Z,99808.34
2022-08-23T00:20:13.340Z,99814.19
2022-08-23T00:20:44.809Z,99812.53
2022-08-23T00:21:16.471Z,99820.41
2022-08-23T00:21:48.130Z,99811.53
2022-08-23T00:22:19.572Z,99815.22
2022-08-23T00:22:51.060Z,99809.72
2022-08-23T00:23:22.501Z,99812.53
2022-08-23T00:23:53.951Z,99815.22
2022-08-23T00:24:25.502Z,99808.19
2022-08-23T00:24:57.262Z,99814.38
2022-08-23T00:25:28.717Z,99811.84
2022-08-23T00:26:03.224Z,99807.34
2022-08-23T00:26:53.047Z,99808.84
2022-08-23T00:27:24.511Z,99813.03
2022-08-23T00:27:56.250Z,99814.19
2022-08-23T00:28:27.653Z,99810.53
2022-08-23T00:28:59.187Z,99808.84
2022-08-23T00:29:32.127Z,99812.53
2022-08-23T00:30:04.257Z,99809.00
2022-08-23T00:30:35.825Z,99808.84
2022-08-23T00:31:07.255Z,99807.84
2022-08-23T00:31:38.690Z,99808.84
2022-08-23T00:32:11.399Z,99812.19
2022-08-23T00:32:42.907Z,99810.53
2022-08-23T00:33:14.381Z,99805.66
2022-08-23T00:33:45.859Z,99808.19
2022-08-23T00:34:17.375Z,99802.81
2022-08-23T00:34:48.894Z,99811.69
2022-08-23T00:35:23.496Z,99805.34
2022-08-23T00:35:58.166Z,99802.00
2022-08-23T00:36:29.567Z,99811.69
2022-08-23T00:37:01.168Z,99803.47
2022-08-23T00:37:32.656Z,99808.84
2022-08-23T00:38:31.998Z,99803.81
2022-08-23T00:38:55.611Z,99810.84
2022-08-23T00:39:27.123Z,99814.84
2022-08-23T00:39:58.999Z,99811.19
2022-08-23T00:40:30.454Z,99807.84
2022-08-23T00:41:01.955Z,99812.16
2022-08-23T00:41:33.660Z,99807.69
2022-08-23T00:42:12.428Z,99815.88
2022-08-23T00:43:16.099Z,99806.16
2022-08-23T00:43:47.628Z,99805.31
2022-08-23T00:44:21.359Z,99803.47
2022-08-23T00:44:52.858Z,99804.31
2022-08-23T00:45:27.145Z,99809.66
2022-08-23T00:46:10.685Z,99806.81
2022-08-23T00:46:43.237Z,99808.16
2022-08-23T00:47:14.714Z,99803.63
2022-08-23T00:47:46.294Z,99799.13
2022-08-23T00:48:17.802Z,99800.13
2022-08-23T00:48:49.338Z,99799.81
2022-08-23T00:49:20.830Z,99800.97
2022-08-23T00:49:54.134Z,99797.28
2022-08-23T00:50:36.984Z,99794.63
2022-08-23T00:51:15.125Z,99801.81
2022-08-23T00:51:55.733Z,99799.97
2022-08-23T00:52:30.347Z,99795.44
2022-08-23T00:54:21.969Z,99798.94
2022-08-23T00:54:59.823Z,99793.59
2022-08-23T00:55:39.720Z,99790.91
2022-08-23T00:56:35.714Z,99793.78
2022-08-23T00:57:21.786Z,99796.63
2022-08-23T00:58:11.357Z,99787.88
2022-08-23T00:59:05.334Z,99790.41
2022-08-23T00:59:58.091Z,99796.63
2022-08-23T01:00:49.822Z,99790.41
2022-08-23T01:01:32.549Z,99793.25
2022-08-23T01:02:23.790Z,99792.75
2022-08-23T02:44:04.168Z,99810.22
2022-08-23T02:44:43.105Z,99808.41
2022-08-23T02:45:26.506Z,99811.06
2022-08-23T02:47:15.682Z,99817.41
2022-08-23T02:48:04.266Z,99811.06
2022-08-23T02:48:45.525Z,99813.91
2022-08-23T02:49:29.149Z,99825.59
2022-08-23T02:50:18.310Z,99815.72
2022-08-23T02:51:10.607Z,99817.75
2022-08-23T02:52:10.795Z,99814.91
2022-08-23T02:53:09.646Z,99813.06
2022-08-23T02:54:03.613Z,99814.06
2022-08-23T02:54:47.295Z,99810.38
2022-08-23T02:55:54.108Z,99814.75
2022-08-23T02:56:46.540Z,99815.56
2022-08-23T02:57:35.213Z,99810.91
2022-08-23T02:58:12.421Z,99817.09
2022-08-23T02:58:59.495Z,99812.06
2022-08-23T02:59:49.594Z,99815.41
2022-08-23T03:00:30.185Z,99815.72
2022-08-23T03:01:19.715Z,99813.91
2022-08-23T03:02:09.086Z,99817.41
2022-08-23T03:02:53.656Z,99812.88
2022-08-23T03:03:30.127Z,99817.41
2022-08-23T03:04:10.703Z,99817.41
2022-08-23T03:04:50.181Z,99811.22
2022-08-23T03:05:33.425Z,99814.06
2022-08-23T03:06:24.337Z,99809.53
2022-08-23T03:07:03.902Z,99811.41
2022-08-23T03:07:46.043Z,99812.88
2022-08-23T03:08:25.842Z,99813.06
2022-08-23T03:09:18.441Z,99813.06
2022-08-23T03:10:03.924Z,99811.41
2022-08-23T03:10:54.646Z,99814.06
2022-08-23T03:11:45.262Z,99822.25
2022-08-23T03:12:32.394Z,99811.41
2022-08-23T04:04:24.186Z,99832.06
2022-08-23T04:05:10.301Z,99839.25
2022-08-23T04:05:48.023Z,99843.59
2022-08-23T04:06:32.247Z,99839.41
2022-08-23T04:07:23.825Z,99845.47
2022-08-23T04:08:18.136Z,99847.28
2022-08-23T04:09:29.545Z,99843.75
2022-08-23T04:10:22.247Z,99848.13
2022-08-23T04:11:15.193Z,99854.47
2022-08-23T04:11:59.114Z,99852.63
2022-08-23T04:12:45.237Z,99847.13
2022-08-23T04:13:39.332Z,99847.13
2022-08-23T04:14:35.545Z,99854.16
2022-08-23T04:15:30.534Z,99855.97
2022-08-23T04:16:18.082Z,99857.81
2022-08-23T04:17:32.774Z,99857.00
2022-08-23T04:20:37.725Z,99854.47
2022-08-23T04:21:25.447Z,99853.81
2022-08-23T04:22:11.450Z,99856.16
2022-08-23T04:22:53.043Z,99849.78
2022-08-23T04:23:38.788Z,99854.31
2022-08-23T05:24:07.475Z,99904.25
2022-08-23T05:24:54.950Z,99902.28
2022-08-23T05:25:43.430Z,99902.44
2022-08-23T05:26:27.058Z,99903.94
2022-08-23T05:27:09.563Z,99901.28
2022-08-23T05:28:02.879Z,99900.59
2022-08-23T05:28:44.840Z,99908.78
2022-08-23T05:29:33.155Z,99904.97
2022-08-23T06:34:40.183Z,99948.50
2022-08-23T06:35:39.452Z,99951.50
2022-08-23T06:36:29.083Z,99952.16
2022-08-23T06:37:11.618Z,99948.50
2022-08-23T06:37:56.970Z,99948.50
2022-08-23T06:38:42.159Z,99961.22
2022-08-23T06:39:25.455Z,99951.34
2022-08-23T06:40:07.410Z,99953.84
2022-08-23T06:40:46.824Z,99952.16
2022-08-23T06:41:35.679Z,99948.66
2022-08-23T06:42:38.195Z,99953.03
2022-08-23T06:43:22.984Z,99956.53
2022-08-23T06:44:06.260Z,99949.66
2022-08-23T06:44:44.685Z,99948.50
2022-08-23T06:45:27.017Z,99953.84
2022-08-23T06:46:17.325Z,99960.03
2022-08-23T06:46:57.868Z,99954.69
2022-08-23T06:47:39.805Z,99961.72
2022-08-23T06:48:21.178Z,99960.63
2022-08-23T06:49:04.650Z,99950.91
2022-08-23T06:49:51.153Z,99959.88
2022-08-23T06:50:36.790Z,99955.28
2022-08-23T06:51:20.044Z,99956.09
2022-08-23T06:51:59.689Z,99953.25
2022-08-23T06:52:37.324Z,99953.25
2022-08-23T06:53:28.690Z,99950.59
2022-08-23T06:55:26.052Z,99948.75
2022-08-23T06:56:19.500Z,99952.44
2022-08-23T06:57:06.267Z,99955.13
2022-08-23T06:58:00.692Z,99948.91
2022-08-23T06:58:52.783Z,99953.25
2022-08-23T06:59:49.344Z,99948.75
2022-08-23T07:00:42.670Z,99951.25
2022-08-23T07:01:44.507Z,99944.22
2022-08-23T07:02:37.339Z,99947.91
2022-08-23T07:03:40.442Z,99951.41
2022-08-23T07:04:37.162Z,99945.91
2022-08-23T07:05:45.821Z,99949.25
2022-08-23T07:06:46.071Z,99951.25
2022-08-23T07:07:45.481Z,99950.44
2022-08-23T07:08:43.836Z,99951.25
2022-08-23T07:09:48.906Z,99956.78
2022-08-23T07:15:21.484Z,99953.94
2022-08-23T07:16:09.649Z,99958.31
2022-08-23T07:16:58.252Z,99960.81
2022-08-23T07:17:53.895Z,99959.81
2022-08-23T07:18:46.712Z,99952.09
2022-08-23T07:19:53.344Z,99960.97
2022-08-23T07:26:04.817Z,99963.34
2022-08-23T07:26:52.999Z,99965.00
2022-08-23T07:27:45.269Z,99962.50
2022-08-23T07:28:34.652Z,99963.34
2022-08-23T07:29:31.630Z,99964.19
2022-08-23T07:30:33.835Z,99967.84
2022-08-23T07:31:30.026Z,99967.84
2022-08-23T07:32:22.814Z,99961.66
2022-08-23T07:33:19.662Z,99962.81
2022-08-23T07:34:22.913Z,99967.00
2022-08-23T07:37:38.350Z,99967.69
2022-08-23T07:38:16.807Z,99972.88
2022-08-23T07:38:54.364Z,99968.69
2022-08-23T07:39:32.655Z,99976.59
2022-08-23T07:40:10.533Z,99977.56
2022-08-23T07:40:57.358Z,99972.38
2022-08-23T07:41:40.922Z,99980.41
2022-08-23T07:42:24.868Z,99978.25
2022-08-23T07:43:06.102Z,99975.72
2022-08-23T07:43:46.003Z,99980.09
2022-08-23T07:44:27.146Z,99973.75
2022-08-23T07:45:10.018Z,99973.75
2022-08-23T07:45:51.706Z,99975.41
2022-08-23T07:46:37.583Z,99979.25
2022-08-23T07:47:23.731Z,99978.09
2022-08-23T07:48:09.294Z,99977.41
2022-08-23T07:48:54.970Z,99974.72
2022-08-23T07:49:45.351Z,99982.75
2022-08-23T07:50:22.767Z,99972.88
2022-08-23T07:51:02.595Z,99976.22
2022-08-23T07:51:47.011Z,99979.09
2022-08-23T07:52:25.380Z,99980.75
2022-08-23T07:53:04.418Z,99978.75
2022-08-23T07:53:46.405Z,99978.75
2022-08-23T07:54:27.330Z,99983.28
2022-08-23T07:55:05.135Z,99984.06
2022-08-23T07:55:42.267Z,99984.22
2022-08-23T07:56:19.695Z,99988.28
2022-08-23T07:56:57.996Z,99984.44
2022-08-23T07:57:35.435Z,99986.44
2022-08-23T07:58:13.597Z,99983.75
2022-08-23T07:58:50.588Z,99981.94
2022-08-23T07:59:31.442Z,99981.94
2022-08-23T08:00:11.452Z,99981.59
2022-08-23T08:00:49.233Z,99976.06
2022-08-23T08:01:26.635Z,99985.97
2022-08-23T08:02:03.640Z,99986.78
2022-08-23T08:02:40.345Z,99977.94
2022-08-23T08:03:17.989Z,99974.72
2022-08-23T08:03:55.329Z,99975.56
2022-08-23T08:04:32.874Z,99980.44
2022-08-23T08:05:09.737Z,99976.22
2022-08-23T08:05:48.347Z,99977.09
2022-08-23T08:06:28.347Z,99983.28
2022-08-23T08:07:18.773Z,99971.75
2022-08-23T08:07:57.706Z,99980.28
2022-08-23T08:08:37.892Z,99980.44
2022-08-23T08:09:19.494Z,99977.09
2022-08-23T08:10:04.102Z,99977.94
2022-08-23T08:10:52.632Z,99978.75
2022-08-23T08:11:35.212Z,99975.91
2022-08-23T08:12:12.773Z,99986.13
2022-08-23T08:12:50.456Z,99982.44
2022-08-23T08:13:27.300Z,99987.50
2022-08-23T08:14:04.147Z,99986.63
2022-08-23T08:14:42.235Z,99989.81
2022-08-23T08:15:20.465Z,99988.13
2022-08-23T08:15:58.785Z,99988.63
2022-08-23T08:16:36.005Z,99984.97
2022-08-23T08:17:13.859Z,99991.97
2022-08-23T08:17:51.816Z,99987.19
2022-08-23T08:18:29.100Z,99989.16
2022-08-23T08:19:07.812Z,99991.00
2022-08-23T08:19:46.054Z,99991.47
2022-08-23T08:20:23.433Z,99993.16
2022-08-23T08:21:00.476Z,99977.63
2022-08-23T08:21:38.856Z,99991.69
2022-08-23T08:22:21.611Z,99983.78
2022-08-23T08:23:02.481Z,99994.19
2022-08-23T08:23:44.624Z,99987.03
2022-08-23T08:24:25.465Z,99986.00
2022-08-23T08:25:07.822Z,99983.47
2022-08-23T08:25:49.521Z,99984.19
2022-08-23T08:26:30.225Z,99989.69
2022-08-23T08:27:08.672Z,99993.53
2022-08-23T08:27:48.705Z,99988.00
2022-08-23T08:28:28.230Z,99986.00
2022-08-23T08:29:06.136Z,99999.25
2022-08-23T08:29:47.103Z,99986.88
2022-08-23T08:30:28.341Z,99986.00
2022-08-23T08:31:10.744Z,99992.22
2022-08-23T08:31:54.297Z,99989.34
2022-08-23T08:32:35.670Z,99991.03
2022-08-23T08:33:16.775Z,99993.88
2022-08-23T08:33:55.348Z,99992.22
2022-08-23T08:34:33.093Z,99990.53
2022-08-23T08:35:10.598Z,99993.22
2022-08-23T08:35:57.876Z,99991.19
2022-08-23T08:36:41.746Z,99992.03
2022-08-23T08:37:27.439Z,99995.41
2022-08-23T08:38:09.331Z,99987.69
2022-08-23T08:38:47.907Z,99998.41
2022-08-23T08:39:33.752Z,99992.91
2022-08-23T08:40:11.668Z,99997.22
2022-08-23T08:40:48.535Z,99994.56
2022-08-23T08:41:28.174Z,99992.91
2022-08-23T08:42:04.874Z,99993.56
2022-08-23T08:42:51.799Z,99996.41
2022-08-23T08:43:38.017Z,99994.72
2022-08-23T08:44:44.542Z,99996.56
2022-08-23T08:45:26.702Z,99997.88
2022-08-23T08:46:16.115Z,99996.19
2022-08-23T08:46:56.858Z,100002.06
2022-08-23T08:47:41.796Z,99999.53
2022-08-23T08:48:19.830Z,99998.41
2022-08-23T08:48:59.257Z,100001.09
2022-08-23T08:50:00.929Z,100004.59
2022-08-23T08:50:39.456Z,99995.88
2022-08-23T08:51:23.760Z,99995.72
2022-08-23T08:52:01.813Z,99997.38
2022-08-23T08:52:38.397Z,99998.56
2022-08-23T08:53:16.250Z,99992.22
2022-08-23T08:53:53.253Z,99992.91
2022-08-23T08:54:30.598Z,99998.91
2022-08-23T08:55:09.335Z,99997.22
2022-08-23T08:55:50.702Z,99990.22
2022-08-23T08:56:33.723Z,99996.41
2022-08-23T08:57:18.312Z,99993.72
2022-08-23T08:58:04.674Z,99994.19
2022-08-23T08:58:45.073Z,100001.09
2022-08-23T08:59:26.568Z,99997.72
2022-08-23T09:00:04.254Z,100002.06
2022-08-23T09:00:41.860Z,99993.38
2022-08-23T09:01:19.591Z,99994.34
2022-08-23T09:01:57.415Z,99999.53
2022-08-23T09:02:38.129Z,99994.50
2022-08-23T09:03:22.284Z,99998.88
2022-08-23T09:04:00.120Z,99996.88
2022-08-23T09:04:37.246Z,99987.19
2022-08-23T09:05:18.734Z,100002.22
2022-08-23T09:06:15.867Z,99996.72
2022-08-23T09:07:01.560Z,99997.56
2022-08-23T09:07:46.045Z,99990.53
2022-08-23T09:08:37.973Z,99996.88
2022-08-23T09:09:25.280Z,99991.97
2022-08-23T09:10:04.004Z,99984.66
2022-08-23T09:10:44.388Z,99989.16
2022-08-23T09:11:22.317Z,99989.69
2022-08-23T09:12:00.672Z,99985.50
2022-08-23T09:12:41.696Z,99983.47
2022-08-23T09:13:35.581Z,99987.03
2022-08-23T09:14:15.638Z,99990.38
2022-08-23T09:14:54.198Z,99994.19
2022-08-23T09:15:29.856Z,99989.69
2022-08-23T09:16:17.023Z,99987.84
2022-08-23T09:16:54.584Z,99995.88
2022-08-23T09:17:43.903Z,99989.84
2022-08-23T09:18:29.416Z,99987.19
2022-08-23T09:19:13.737Z,99990.53
2022-08-23T09:19:55.336Z,99990.69
2022-08-23T09:20:34.842Z,99983.84
2022-08-23T09:21:11.899Z,99987.53
2022-08-23T09:21:52.235Z,99990.22
2022-08-23T09:22:33.162Z,99989.34
2022-08-23T09:23:14.005Z,99994.19
2022-08-23T09:24:00.967Z,99986.16
2022-08-23T09:24:40.264Z,99992.53
2022-08-23T09:25:19.288Z,99994.19
2022-08-23T09:26:03.748Z,99993.06
2022-08-23T09:26:44.721Z,99990.22
2022-08-23T09:27:29.351Z,99991.88
2022-08-23T09:28:18.634Z,99988.22
2022-08-23T09:29:04.680Z,99990.06
2022-08-23T09:29:45.189Z,99998.09
2022-08-23T09:30:23.001Z,99991.72
2022-08-23T09:31:00.975Z,99993.25
2022-08-23T09:31:39.494Z,99990.22
2022-08-23T09:32:29.485Z,99994.56
2022-08-23T09:33:20.256Z,99990.06
2022-08-23T09:34:04.801Z,99989.75
2022-08-23T09:34:50.951Z,99989.59
2022-08-23T09:35:40.519Z,99984.22
2022-08-23T09:36:23.567Z,99999.28
2022-08-23T09:37:10.141Z,99993.94
2022-08-23T09:37:54.653Z,99990.41
2022-08-23T09:38:32.409Z,99988.06
2022-08-23T09:39:30.450Z,99987.75
2022-08-23T09:40:21.137Z,99992.25
2022-08-23T09:40:59.339Z,99988.06
2022-08-23T09:41:36.997Z,99986.75
2022-08-23T09:42:33.525Z,99990.56
2022-08-23T09:43:25.792Z,99984.06
2022-08-23T09:44:02.871Z,99985.06
2022-08-23T09:44:43.398Z,99988.56
2022-08-23T09:45:35.085Z,99987.59
2022-08-23T09:46:20.776Z,99985.88
2022-08-23T09:47:08.981Z,99986.56
2022-08-23T09:47:46.488Z,99982.91
2022-08-23T09:48:37.658Z,99982.91
2022-08-23T09:49:23.768Z,99997.28
2022-08-23T09:50:18.428Z,99984.91
2022-08-23T09:50:57.119Z,99985.88
2022-08-23T09:51:35.191Z,99985.53
2022-08-23T09:52:16.044Z,99989.03
2022-08-23T09:53:05.104Z,99981.56
2022-08-23T09:53:43.577Z,99981.56
2022-08-23T09:54:24.854Z,99989.59
2022-08-23T09:55:06.983Z,99981.41
2022-08-23T09:55:45.527Z,99978.88
2022-08-23T09:56:27.805Z,99981.41
2022-08-23T09:57:11.715Z,99983.88
2022-08-23T09:57:59.312Z,99980.69
2022-08-23T09:58:43.698Z,99977.84
2022-08-23T09:59:28.090Z,99979.88
2022-08-23T10:00:29.507Z,99981.72
2022-08-23T10:01:18.169Z,99978.53
2022-08-23T10:01:55.271Z,99979.38
2022-08-23T10:02:33.653Z,99977.38
2022-08-23T10:03:27.050Z,99977.53
2022-08-23T10:04:14.114Z,99982.22
2022-08-23T10:05:11.931Z,99989.25
2022-08-23T10:05:54.557Z,99982.22
2022-08-23T10:06:33.177Z,99983.88
2022-08-23T10:07:30.010Z,99976.56
2022-08-23T10:08:11.506Z,99978.22
2022-08-23T10:08:55.639Z,99975.69
2022-08-23T10:09:33.238Z,99976.56
2022-08-23T10:10:17.748Z,99972.34
2022-08-23T10:10:55.219Z,99978.22
2022-08-23T10:11:33.466Z,99968.50
2022-08-23T10:12:11.981Z,99976.56
2022-08-23T10:12:49.602Z,99973.16
2022-08-23T10:13:28.212Z,99969.81
2022-08-23T10:14:06.360Z,99970.84
2022-08-23T10:14:45.605Z,99969.16
2022-08-23T10:15:26.543Z,99979.88
2022-08-23T10:16:26.909Z,99972.50
2022-08-23T10:17:14.238Z,99969.81
2022-08-23T10:17:57.917Z,99971.50
2022-08-23T10:18:49.643Z,99966.78
2022-08-23T10:19:36.026Z,99976.03
2022-08-23T10:20:14.119Z,99974.88
2022-08-23T10:20:54.974Z,99971.19
2022-08-23T10:21:31.106Z,99974.88
2022-08-23T10:22:09.349Z,99980.38
2022-08-23T10:22:46.688Z,99978.53
2022-08-23T10:23:45.848Z,99972.03
2022-08-23T10:24:24.376Z,99972.84
2022-08-23T10:24:59.784Z,99976.25
2022-08-23T10:25:35.339Z,99966.34
2022-08-23T10:26:15.364Z,99963.00
2022-08-23T10:26:53.952Z,99963.00
2022-08-23T10:27:30.136Z,99970.88
2022-08-23T10:28:39.332Z,99964.66
2022-08-23T10:29:18.784Z,99961.66
2022-08-23T10:29:56.328Z,99969.69
2022-08-23T10:31:00.089Z,99970.88
2022-08-23T10:31:51.092Z,99966.34
2022-08-23T10:32:29.521Z,99970.03
2022-08-23T10:33:05.082Z,99970.88
2022-08-23T10:33:46.409Z,99966.66
2022-08-23T10:34:45.957Z,99969.84
2022-08-23T10:35:30.680Z,99973.91
2022-08-23T10:36:32.877Z,99970.56
2022-08-23T10:37:31.099Z,99973.91
2022-08-23T10:38:09.379Z,99967.69
2022-08-23T10:38:44.817Z,99973.25
2022-08-23T10:39:29.152Z,99968.03
2022-08-23T10:40:23.853Z,99968.56
2022-08-23T10:41:22.622Z,99968.56
2022-08-23T10:42:08.829Z,99963.19
2022-08-23T10:43:02.606Z,99962.19
2022-08-23T10:43:53.001Z,99957.69
2022-08-23T10:44:30.975Z,99953.31
2022-08-23T10:45:16.778Z,99959.50
2022-08-23T10:45:58.314Z,99958.00
2022-08-23T10:46:54.972Z,99954.31
2022-08-23T10:47:38.081Z,99955.47
2022-08-23T10:48:40.644Z,99960.69
2022-08-23T10:49:28.245Z,99959.00
2022-08-23T10:50:09.580Z,99959.00
2022-08-23T10:51:23.307Z,99952.47
2022-08-23T10:52:09.824Z,99947.63
2022-08-23T10:52:50.519Z,99955.50
2022-08-23T10:53:30.087Z,99954.84
2022-08-23T10:54:07.822Z,99955.00
2022-08-23T10:55:06.801Z,99954.13
2022-08-23T10:55:52.791Z,99948.78
2022-08-23T10:56:29.800Z,99951.47
2022-08-23T10:57:07.650Z,99947.13
2022-08-23T10:57:44.779Z,99947.78
2022-08-23T10:58:23.837Z,99948.78
2022-08-23T10:59:02.311Z,99947.63
2022-08-23T10:59:40.379Z,99942.59
2022-08-23T11:00:20.344Z,99950.47
2022-08-23T11:00:58.464Z,99949.47
2022-08-23T11:01:42.067Z,99955.34
2022-08-23T11:02:26.345Z,99950.97
2022-08-23T11:03:14.820Z,99952.00
2022-08-23T11:04:05.629Z,99950.16
2022-08-23T11:04:46.693Z,99953.16
2022-08-23T11:05:24.295Z,99953.00
2022-08-23T11:06:22.527Z,99945.94
2022-08-23T11:07:11.623Z,99950.31
2022-08-23T11:07:59.020Z,99951.16
2022-08-23T11:08:36.265Z,99948.47
2022-08-23T11:09:11.979Z,99948.47
2022-08-23T11:09:50.213Z,99945.63
2022-08-23T11:10:32.533Z,99946.81
2022-08-23T11:11:09.510Z,99944.81
2022-08-23T11:12:03.482Z,99945.47
2022-08-23T11:13:03.274Z,99943.81
2022-08-23T11:13:40.399Z,99945.63
2022-08-23T11:14:30.605Z,99945.63
2022-08-23T11:15:08.676Z,99948.31
2022-08-23T11:15:48.285Z,99939.44
2022-08-23T11:16:27.984Z,99941.97
2022-08-23T11:17:21.416Z,99950.00
2022-08-23T11:18:07.753Z,99950.81
2022-08-23T11:18:43.281Z,99943.09
2022-08-23T11:19:23.329Z,99943.97
2022-08-23T11:20:03.420Z,99936.09
2022-08-23T11:20:51.262Z,99948.31
2022-08-23T11:21:27.237Z,99943.81
2022-08-23T11:22:28.776Z,99943.81
2022-08-23T11:23:06.333Z,99943.09
2022-08-23T11:23:49.509Z,99939.44
2022-08-23T11:24:32.853Z,99942.28
2022-08-23T11:25:30.657Z,99942.28
2022-08-23T11:26:12.772Z,99940.28
2022-08-23T11:26:48.382Z,99937.44
2022-08-23T11:27:29.109Z,99943.66
2022-08-23T11:28:24.070Z,99938.97
2022-08-23T11:29:02.528Z,99937.44
2022-08-23T11:29:41.615Z,99949.00
2022-08-23T11:30:33.189Z,99944.81
2022-08-23T11:31:27.922Z,99947.63
2022-08-23T11:32:16.476Z,99941.13
2022-08-23T11:32:57.538Z,99941.13
2022-08-23T11:33:37.480Z,99942.78
2022-08-23T11:34:29.989Z,99940.09
2022-08-23T11:35:26.575Z,99944.81
2022-08-23T11:36:11.863Z,99942.94
2022-08-23T11:37:07.783Z,99940.09
2022-08-23T11:37:52.218Z,99936.28
2022-08-23T11:38:46.932Z,99941.13
2022-08-23T11:39:30.419Z,99935.94
2022-08-23T11:40:17.504Z,99939.28
2022-08-23T11:40:54.916Z,99944.47
2022-08-23T11:41:37.108Z,99940.28
2022-08-23T11:42:33.368Z,99941.81
2022-08-23T11:43:22.301Z,99945.63
2022-08-23T11:43:58.056Z,99940.44
2022-08-23T11:44:42.518Z,99941.13
2022-08-23T11:45:38.783Z,99939.13
2022-08-23T11:46:28.641Z,99945.16
2022-08-23T11:47:05.821Z,99939.13
2022-08-23T11:47:44.826Z,99934.91
2022-08-23T11:48:29.762Z,99931.91
2022-08-23T11:49:25.628Z,99932.06
2022-08-23T11:50:08.059Z,99935.41
2022-08-23T11:50:57.743Z,99937.94
2022-08-23T11:51:45.366Z,99932.41
2022-08-23T11:52:28.124Z,99930.06
2022-08-23T11:53:10.068Z,99932.06
2022-08-23T11:53:54.731Z,99928.41
2022-08-23T11:54:31.038Z,99924.03
2022-08-23T11:55:13.877Z,99924.03
2022-08-23T11:56:11.728Z,99930.41
2022-08-23T11:57:08.896Z,99932.06
2022-08-23T11:57:48.630Z,99932.06
2022-08-23T11:58:24.361Z,99930.91
2022-08-23T11:59:02.850Z,99936.44
2022-08-23T11:59:59.918Z,99936.59
2022-08-23T12:00:57.107Z,99927.56
2022-08-23T12:01:37.118Z,99930.41
2022-08-23T12:02:31.571Z,99923.72
2022-08-23T12:03:07.826Z,99937.28
2022-08-23T12:04:00.783Z,99930.25
2022-08-23T12:04:41.381Z,99926.56
2022-08-23T12:05:17.076Z,99926.56
2022-08-23T12:05:52.556Z,99932.94
2022-08-23T12:06:28.103Z,99930.91
2022-08-23T12:07:06.305Z,99930.91
2022-08-23T12:08:05.679Z,99931.59
2022-08-23T12:08:47.632Z,99930.91
2022-08-23T12:09:25.742Z,99930.06
2022-08-23T12:10:03.573Z,99930.06
2022-08-23T12:10:42.049Z,99931.41
2022-08-23T12:11:19.569Z,99933.59
2022-08-23T12:11:58.534Z,99929.22
2022-08-23T12:12:40.981Z,99925.56
2022-08-23T12:13:21.900Z,99932.56
2022-08-23T12:14:00.605Z,99930.06
2022-08-23T12:14:47.227Z,99933.44
2022-08-23T12:15:32.043Z,99925.56
2022-08-23T12:16:16.690Z,99932.06
2022-08-23T12:17:06.343Z,99928.41
2022-08-23T12:17:42.580Z,99936.75
2022-08-23T12:18:25.023Z,99927.56
2022-08-23T12:19:13.561Z,99927.56
2022-08-23T12:19:59.170Z,99925.56
2022-08-23T12:20:36.173Z,99928.41
2022-08-23T12:21:33.906Z,99929.22
2022-08-23T12:22:15.921Z,99929.06
2022-08-23T12:23:00.305Z,99929.06
2022-08-23T12:23:56.011Z,99933.59
2022-08-23T12:24:44.541Z,99933.75
2022-08-23T12:25:21.715Z,99923.03
2022-08-23T12:26:01.862Z,99927.56
2022-08-23T12:26:40.764Z,99919.34
2022-08-23T12:27:19.449Z,99925.72
2022-08-23T12:27:58.854Z,99919.34
2022-08-23T12:28:53.312Z,99928.09
2022-08-23T12:29:36.317Z,99918.34
2022-08-23T12:30:12.378Z,99923.88
2022-08-23T12:30:57.239Z,99923.03
2022-08-23T12:31:51.998Z,99920.03
2022-08-23T12:32:49.339Z,99917.38
2022-08-23T12:33:45.835Z,99918.19
2022-08-23T12:34:47.506Z,99923.72
2022-08-23T12:35:34.524Z,99922.22
2022-08-23T12:36:16.457Z,99927.03
2022-08-23T12:37:09.719Z,99924.91
2022-08-23T12:37:55.823Z,99928.25
2022-08-23T12:38:31.367Z,99922.72
2022-08-23T12:39:09.258Z,99926.41
2022-08-23T12:40:01.210Z,99930.06
2022-08-23T12:40:42.708Z,99933.75
2022-08-23T12:41:22.468Z,99919.34
2022-08-23T12:42:14.466Z,99926.56
2022-08-23T12:43:03.013Z,99923.41
2022-08-23T12:43:42.771Z,99920.88
2022-08-23T12:44:22.460Z,99920.88
2022-08-23T12:45:02.185Z,99917.38
2022-08-23T12:45:40.595Z,99919.03
2022-08-23T12:46:26.088Z,99921.69
2022-08-23T12:47:14.001Z,99919.34
2022-08-23T12:48:05.931Z,99920.88
2022-08-23T12:48:48.587Z,99917.53
2022-08-23T12:49:31.791Z,99919.34
2022-08-23T12:50:09.362Z,99928.09
2022-08-23T12:50:47.051Z,99931.59
2022-08-23T12:51:24.672Z,99920.72
2022-08-23T12:52:02.405Z,99922.72
2022-08-23T12:52:40.813Z,99925.41
2022-08-23T12:53:20.800Z,99934.78
2022-08-23T12:53:58.712Z,99924.38
2022-08-23T12:54:44.857Z,99933.13
2022-08-23T12:55:22.639Z,99925.41
2022-08-23T12:56:03.558Z,99930.75
2022-08-23T12:56:45.362Z,99930.59
2022-08-23T12:57:35.330Z,99935.09
2022-08-23T12:58:21.301Z,99929.41
2022-08-23T12:59:12.646Z,99928.91
2022-08-23T13:00:16.937Z,99932.25
2022-08-23T13:00:57.031Z,99931.44
2022-08-23T13:01:38.690Z,99926.06
2022-08-23T13:02:34.789Z,99929.75
2022-08-23T13:03:19.924Z,99929.75
2022-08-23T13:04:07.826Z,99926.06
2022-08-23T13:04:44.829Z,99930.75
2022-08-23T13:05:33.112Z,99928.09
2022-08-23T13:06:19.292Z,99921.88
2022-08-23T13:07:02.358Z,99923.88
2022-08-23T13:07:44.795Z,99930.41
2022-08-23T13:08:34.778Z,99926.41
2022-08-23T13:09:25.252Z,99932.41
2022-08-23T13:10:03.376Z,99926.06
2022-08-23T13:10:40.550Z,99927.91
2022-08-23T13:11:19.566Z,99929.59
2022-08-23T13:11:57.469Z,99927.75
2022-08-23T13:12:35.351Z,99929.75
2022-08-23T13:13:12.886Z,99933.13
2022-08-23T13:13:50.240Z,99928.09
2022-08-23T13:14:52.841Z,99926.06
2022-08-23T13:15:43.718Z,99918.19
2022-08-23T13:16:37.668Z,99926.41
2022-08-23T13:17:20.510Z,99927.91
2022-08-23T13:18:14.757Z,99919.03
2022-08-23T13:18:54.707Z,99918.19
2022-08-23T13:19:34.177Z,99918.19
2022-08-23T13:20:09.779Z,99921.38
2022-08-23T13:20:48.594Z,99915.34
2022-08-23T13:21:24.026Z,99915.19
2022-08-23T13:22:19.079Z,99916.34
2022-08-23T13:23:01.893Z,99926.91